Enter the Airport ICAO Code

Search by Airport or City

Current Weather

PAEN | Kenai Municipal Airport

Kenai, Alaska, United States

Last Update 16 Minutes Ago

Clear Sky at Low Altitude

Temperature of 10 ºC

Light Winds from SouthEast

Temperature

10 ºC

Dew Point Temperature

08 ºC

Relative Humidity

87.42 %

Wind Direction

SouthEast (130º, Without Significant Variations)

Wind Velocity

7 km/h (04 kt)

Gusts

None

Visibility

Greater than 10 Miles

Sea Level Pressure

29.95 inHg (Inches of Mercury)

Layers of Clouds

None

METAR PAEN 130953Z AUTO 13004KT 10SM CLR 10/08 A2995 RMK AO2 SLP143 T01000078 TSNO

Weather Forecast

PAEN | Kenai Municipal Airport

Kenai, Alaska, United States

Forecast valid for the next 20 Hours

From now on it is expected:

Completely Cloudy Sky

Moderate Winds from SouthWest

In 3 hours it is expected the begining of:

Light to Moderate Winds from Variable Directions

In 10 hours it is expected the begining of:

Sky with Few Clouds

Light to Moderate Winds from North

Maximum Temperature

No Data

Minimum Temperature

No Data

TAF PAEN 130522Z 1306/1406 22011KT P6SM SCT020 OVC060 FM131300 VRB06KT P6SM FEW030 OVC060 FM132000 36009KT P6SM FEW120